Time;durP1;ratioP1;P1;durP2;ratioP2;P2;SDS_P1;SDS_P2;PMS_P1;PMS_P2;Temp;Humidity;BMP_temperature;BMP_pressure;BME280_temperature;BME280_humidity;BME280_pressure;Samples;Min_cycle;Max_cycle;Signal;HPM_P1;HPM_P2
2022/01/26 00:06:44;;;;;;;91.45;41.28;;;5.00;99.90;;;;;;5077399;28;20051;-64
2022/01/26 00:09:12;;;;;;;90.75;40.33;;;5.00;99.90;;;;;;5078097;28;20121;-64
2022/01/26 00:11:38;;;;;;;85.65;39.28;;;4.90;99.90;;;;;;5078150;28;20036;-64
2022/01/26 00:14:12;;;;;;;86.30;38.85;;;5.00;99.90;;;;;;5078057;28;20414;-63
2022/01/26 00:16:42;;;;;;;84.97;39.45;;;5.10;99.90;;;;;;5077418;28;20054;-63
2022/01/26 00:19:30;;;;;;;89.65;40.72;;;5.10;99.90;;;;;;5078018;28;20044;-63
2022/01/26 00:21:57;;;;;;;88.07;40.67;;;5.10;99.90;;;;;;5078511;28;20377;-64
2022/01/26 00:29:24;;;;;;;83.63;39.35;;;4.90;99.90;;;;;;5077764;28;20032;-63
2022/01/26 00:40:40;;;;;;;92.40;41.40;;;4.40;99.90;;;;;;5077577;28;20037;-64
2022/01/26 00:43:28;;;;;;;97.97;43.13;;;4.40;99.90;;;;;;5077484;28;20024;-64
2022/01/26 00:45:58;;;;;;;92.85;41.72;;;4.20;99.90;;;;;;5077446;28;20109;-63
2022/01/26 00:48:25;;;;;;;89.30;40.97;;;4.30;99.90;;;;;;5077580;28;20099;-64
2022/01/26 00:50:53;;;;;;;94.88;41.85;;;4.40;99.90;;;;;;5076499;28;20036;-63
2022/01/26 00:53:24;;;;;;;94.38;40.40;;;4.60;99.90;;;;;;5077428;28;20047;-66
2022/01/26 00:55:50;;;;;;;93.57;42.58;;;4.50;99.90;;;;;;5077284;28;20166;-65
2022/01/26 00:58:16;;;;;;;93.35;42.30;;;4.60;99.90;;;;;;5077230;28;20051;-65
2022/01/26 01:00:42;;;;;;;95.85;42.78;;;4.70;99.90;;;;;;5077360;28;20021;-65
2022/01/26 01:03:08;;;;;;;95.15;43.50;;;4.50;99.90;;;;;;5076683;28;20108;-65
2022/01/26 01:05:44;;;;;;;95.35;42.15;;;4.30;99.90;;;;;;5077104;28;20131;-65
2022/01/26 01:08:15;;;;;;;91.47;41.60;;;4.20;99.90;;;;;;5076886;28;20036;-65
2022/01/26 01:10:45;;;;;;;94.47;40.33;;;4.00;99.90;;;;;;5077009;28;20040;-65
2022/01/26 01:13:15;;;;;;;91.85;40.60;;;4.00;99.90;;;;;;5076983;28;20048;-65
2022/01/26 01:15:42;;;;;;;94.82;41.78;;;4.00;99.90;;;;;;5076996;28;20325;-65
2022/01/26 01:18:16;;;;;;;96.13;42.30;;;4.10;99.90;;;;;;5076305;28;20037;-66
2022/01/26 01:31:27;;;;;;;100.75;44.08;;;3.90;99.90;;;;;;5077000;28;20044;-65
2022/01/26 01:33:53;;;;;;;98.18;41.20;;;3.80;99.90;;;;;;5076963;28;20044;-65
2022/01/26 01:36:21;;;;;;;99.53;40.60;;;3.70;99.90;;;;;;5076574;28;20048;-66
2022/01/26 01:38:46;;;;;;;98.07;41.72;;;3.70;99.90;;;;;;5076718;28;20455;-66
2022/01/26 01:41:12;;;;;;;101.13;43.60;;;3.60;99.90;;;;;;5076817;28;20376;-66
2022/01/26 01:43:38;;;;;;;100.72;42.15;;;3.70;99.90;;;;;;5076717;28;20025;-66
2022/01/26 01:46:05;;;;;;;99.53;43.35;;;3.70;99.90;;;;;;5076921;28;20035;-66
2022/01/26 01:48:32;;;;;;;111.32;46.70;;;3.80;99.90;;;;;;5076028;28;20326;-66
2022/01/26 01:51:04;;;;;;;106.97;44.63;;;3.80;99.90;;;;;;5076617;28;20044;-66
2022/01/26 01:53:40;;;;;;;106.50;43.97;;;3.90;99.90;;;;;;5076606;28;20078;-65
2022/01/26 01:56:09;;;;;;;107.45;44.67;;;3.90;99.90;;;;;;5076672;28;20029;-66
2022/01/26 01:58:35;;;;;;;110.03;46.13;;;4.10;99.90;;;;;;5076764;28;20304;-65
2022/01/26 02:01:03;;;;;;;105.32;45.45;;;4.00;99.90;;;;;;5075771;28;20040;-65
2022/01/26 02:03:29;;;;;;;104.75;43.28;;;4.10;99.90;;;;;;5076466;28;20102;-65
2022/01/26 02:05:55;;;;;;;101.65;42.65;;;4.20;99.90;;;;;;5076463;28;20400;-65
2022/01/26 02:08:21;;;;;;;105.60;43.75;;;4.10;99.90;;;;;;5075660;28;20039;-66
2022/01/26 02:10:47;;;;;;;111.82;45.65;;;4.00;99.90;;;;;;5076666;28;20085;-65
2022/01/26 02:13:26;;;;;;;109.75;44.53;;;3.90;99.90;;;;;;5076425;28;20304;-65
2022/01/26 03:09:22;;;;;;;112.90;44.75;;;3.60;99.90;;;;;;5079336;28;20047;-66
2022/01/26 03:11:48;;;;;;;109.50;44.22;;;3.70;99.90;;;;;;5079400;28;20032;-65
2022/01/26 03:16:59;;;;;;;108.70;44.50;;;3.60;99.90;;;;;;5079233;28;20043;-65
2022/01/26 03:19:35;;;;;;;;;;;3.70;99.90;;;;;;5079510;28;20044;-66
2022/01/26 03:30:04;;;;;;;104.28;42.05;;;3.90;99.90;;;;;;5079172;28;20032;-65
2022/01/26 03:33:08;;;;;;;108.45;44.13;;;3.80;99.90;;;;;;5078962;28;20025;-66
2022/01/26 03:35:27;;;;;;;110.88;45.28;;;3.90;99.90;;;;;;5078245;28;20109;-65
2022/01/26 03:37:55;;;;;;;115.15;45.42;;;3.70;99.90;;;;;;5078849;28;20298;-65
2022/01/26 03:40:30;;;;;;;107.82;45.60;;;3.80;99.90;;;;;;5079182;28;20106;-66
2022/01/26 03:42:58;;;;;;;108.57;44.90;;;3.70;99.90;;;;;;5079166;28;20392;-65
2022/01/26 03:45:26;;;;;;;110.68;45.40;;;3.70;99.90;;;;;;5078705;28;20054;-66
2022/01/26 03:47:53;;;;;;;113.85;46.95;;;3.70;99.90;;;;;;5077951;28;20395;-66
2022/01/26 03:50:19;;;;;;;107.57;45.45;;;3.80;99.90;;;;;;5078511;28;20436;-65
2022/01/26 03:52:45;;;;;;;117.07;46.38;;;3.90;99.90;;;;;;5078482;28;20047;-63
2022/01/26 03:55:10;;;;;;;107.82;43.55;;;4.00;99.90;;;;;;5078281;28;20324;-65
2022/01/26 03:57:36;;;;;;;113.40;46.33;;;4.10;99.90;;;;;;5078188;28;20029;-66
2022/01/26 04:00:07;;;;;;;110.13;44.45;;;3.80;99.90;;;;;;5078284;28;20025;-66
2022/01/26 04:02:38;;;;;;;110.97;43.88;;;3.70;99.90;;;;;;5077525;28;20029;-64
2022/01/26 04:05:09;;;;;;;114.07;44.83;;;3.80;99.90;;;;;;5078052;28;20056;-64
2022/01/26 04:07:34;;;;;;;113.10;43.20;;;3.90;99.90;;;;;;5077404;28;20036;-66
2022/01/26 04:10:13;;;;;;;113.97;44.08;;;3.80;99.90;;;;;;5078517;28;20470;-66
2022/01/26 04:12:39;;;;;;;107.85;42.42;;;3.60;99.90;;;;;;5078491;28;20032;-67
2022/01/26 04:15:15;;;;;;;109.47;43.90;;;3.50;99.90;;;;;;5078418;28;20041;-65
2022/01/26 04:17:41;;;;;;;114.20;44.70;;;3.50;99.90;;;;;;5077957;28;20025;-63
2022/01/26 04:20:07;;;;;;;116.32;44.38;;;3.60;99.90;;;;;;5077158;28;20098;-64
2022/01/26 04:22:47;;;;;;;114.25;44.85;;;3.80;99.90;;;;;;5077168;28;20025;-66
2022/01/26 04:25:19;;;;;;;116.43;43.47;;;3.80;99.90;;;;;;5077271;28;20313;-66
2022/01/26 04:27:48;;;;;;;120.15;45.65;;;3.80;99.90;;;;;;5077739;28;20036;-67
2022/01/26 04:30:14;;;;;;;131.05;50.22;;;3.80;99.90;;;;;;5077401;28;20056;-66
2022/01/26 04:32:41;;;;;;;116.63;44.40;;;3.60;99.90;;;;;;5076703;28;20434;-67
2022/01/26 04:35:09;;;;;;;117.55;44.53;;;3.50;99.90;;;;;;5077291;28;20044;-66
2022/01/26 04:40:13;;;;;;;114.53;43.35;;;3.80;99.90;;;;;;5077571;28;20033;-67
2022/01/26 04:45:09;;;;;;;128.38;46.35;;;3.50;99.90;;;;;;5077447;28;20441;-66
2022/01/26 04:47:35;;;;;;;120.43;45.10;;;3.50;99.90;;;;;;5077396;28;20064;-66
2022/01/26 04:50:01;;;;;;;119.82;44.95;;;3.50;99.90;;;;;;5077380;28;20029;-66
2022/01/26 04:52:27;;;;;;;125.47;44.50;;;3.60;99.90;;;;;;5076659;28;20035;-67
2022/01/26 04:54:53;;;;;;;122.35;43.55;;;3.50;99.90;;;;;;5076463;28;20045;-67
2022/01/26 04:57:19;;;;;;;121.95;42.58;;;3.50;99.90;;;;;;5076544;28;20025;-66
2022/01/26 04:59:45;;;;;;;116.85;42.38;;;3.50;99.90;;;;;;5076583;28;20051;-67
2022/01/26 05:02:10;;;;;;;116.25;43.38;;;3.60;99.90;;;;;;5077152;28;20024;-67
2022/01/26 05:04:36;;;;;;;127.72;43.05;;;3.50;99.90;;;;;;5059826;28;20043;-67
2022/01/26 05:07:02;;;;;;;123.32;41.83;;;3.60;99.90;;;;;;5076500;28;20040;-67
2022/01/26 05:09:28;;;;;;;124.47;42.50;;;3.70;99.90;;;;;;5077021;28;20300;-67
2022/01/26 05:11:55;;;;;;;118.93;40.78;;;3.70;99.90;;;;;;5076497;28;20032;-67
2022/01/26 05:14:22;;;;;;;117.32;41.80;;;3.70;99.90;;;;;;5076893;28;20040;-68
2022/01/26 05:16:48;;;;;;;113.55;40.25;;;3.50;99.90;;;;;;5076485;28;20052;-67
2022/01/26 05:19:14;;;;;;;111.35;40.40;;;3.40;99.90;;;;;;5076844;28;20036;-67
2022/01/26 05:21:41;;;;;;;119.38;41.88;;;3.40;99.90;;;;;;5076852;28;20296;-67
2022/01/26 05:24:08;;;;;;;111.97;41.40;;;3.30;99.90;;;;;;5076203;28;20043;-67
2022/01/26 05:26:33;;;;;;;114.45;40.25;;;3.30;99.90;;;;;;5076144;28;20115;-67
2022/01/26 05:28:59;;;;;;;115.32;41.95;;;3.30;99.90;;;;;;5076212;28;20116;-67
2022/01/26 05:31:25;;;;;;;114.70;40.65;;;3.30;99.90;;;;;;5076734;28;20182;-68
2022/01/26 05:33:51;;;;;;;110.35;38.65;;;3.30;99.90;;;;;;5077276;28;20124;-69
2022/01/26 05:36:17;;;;;;;113.43;41.35;;;3.20;99.90;;;;;;5075837;28;20051;-68
2022/01/26 05:38:43;;;;;;;113.03;38.97;;;3.00;99.90;;;;;;5076100;28;20024;-68
2022/01/26 05:41:09;;;;;;;116.40;41.47;;;3.10;99.90;;;;;;5076689;28;20036;-67
2022/01/26 05:43:35;;;;;;;115.65;42.03;;;3.30;99.90;;;;;;5076865;28;20053;-68
2022/01/26 05:46:07;;;;;;;115.00;40.42;;;3.30;99.90;;;;;;5076717;28;20457;-68
2022/01/26 05:48:34;;;;;;;104.53;39.92;;;3.30;99.90;;;;;;5076753;28;20040;-68
2022/01/26 05:51:06;;;;;;;109.53;40.72;;;3.30;99.90;;;;;;5076596;28;20046;-67
2022/01/26 05:53:36;;;;;;;106.50;39.25;;;3.40;99.90;;;;;;5077530;28;20093;-67
2022/01/26 05:56:03;;;;;;;100.78;37.20;;;3.60;99.90;;;;;;5080564;28;20033;-68
2022/01/26 05:58:29;;;;;;;108.75;41.50;;;3.40;99.90;;;;;;5080579;28;20028;-68
2022/01/26 06:00:58;;;;;;;103.25;38.50;;;3.40;99.90;;;;;;5080612;28;20028;-68
2022/01/26 06:03:24;;;;;;;102.60;38.97;;;3.30;99.90;;;;;;5080540;28;20036;-68
2022/01/26 06:05:50;;;;;;;97.38;37.83;;;3.20;99.90;;;;;;5079738;28;20043;-69
2022/01/26 06:08:16;;;;;;;104.28;37.92;;;3.10;99.90;;;;;;5080522;28;20024;-69
2022/01/26 06:10:42;;;;;;;102.05;37.85;;;3.10;99.90;;;;;;5080354;28;20032;-69
2022/01/26 06:13:08;;;;;;;102.90;38.15;;;3.00;99.90;;;;;;5079551;28;20036;-69
2022/01/26 06:15:33;;;;;;;104.72;37.63;;;3.00;99.90;;;;;;5079629;28;20046;-68
2022/01/26 06:17:59;;;;;;;101.57;36.60;;;3.00;99.90;;;;;;5080215;28;20111;-68
2022/01/26 06:20:25;;;;;;;109.13;38.53;;;3.00;99.90;;;;;;5080611;28;20035;-69
2022/01/26 06:22:51;;;;;;;105.85;38.53;;;3.10;99.90;;;;;;5080345;28;20029;-66
2022/01/26 06:25:17;;;;;;;108.78;39.85;;;3.10;99.90;;;;;;5080239;28;20114;-69
2022/01/26 06:27:47;;;;;;;106.40;37.85;;;3.10;99.90;;;;;;5080887;28;20047;-68
2022/01/26 06:30:13;;;;;;;107.22;38.58;;;3.00;99.90;;;;;;5063658;28;20047;-69
2022/01/26 06:32:39;;;;;;;97.75;39.35;;;2.90;99.90;;;;;;5079234;28;20033;-68
2022/01/26 06:35:08;;;;;;;102.03;38.33;;;3.00;99.90;;;;;;5079658;28;20053;-69
2022/01/26 06:37:34;;;;;;;99.25;37.05;;;3.10;99.90;;;;;;5079182;28;20111;-68
2022/01/26 06:40:00;;;;;;;104.70;39.20;;;3.20;99.90;;;;;;5079823;28;20468;-67
2022/01/26 06:42:30;;;;;;;99.90;37.40;;;3.20;99.90;;;;;;5079155;28;20048;-68
2022/01/26 06:45:11;;;;;;;96.03;38.17;;;3.40;99.90;;;;;;5079936;28;20037;-68
2022/01/26 06:50:06;;;;;;;96.63;36.88;;;3.40;99.90;;;;;;5079644;28;20041;-67
2022/01/26 06:52:32;;;;;;;97.85;38.75;;;3.50;99.90;;;;;;5079677;28;20131;-67
2022/01/26 06:54:58;;;;;;;99.10;39.25;;;3.70;99.90;;;;;;5079600;28;20124;-66
2022/01/26 06:57:24;;;;;;;97.75;39.08;;;3.80;99.90;;;;;;5079415;28;20026;-67
2022/01/26 06:59:50;;;;;;;99.22;38.45;;;3.90;99.90;;;;;;5078793;28;20029;-68
2022/01/26 07:02:15;;;;;;;94.80;38.00;;;4.00;99.90;;;;;;5079517;28;20029;-68
2022/01/26 07:04:41;;;;;;;92.43;37.28;;;3.80;99.90;;;;;;5061618;28;20127;-68
2022/01/26 07:07:07;;;;;;;94.63;38.97;;;3.60;99.90;;;;;;5078433;28;20051;-68
2022/01/26 07:09:33;;;;;;;92.82;36.85;;;3.50;99.90;;;;;;5079999;28;20380;-68
2022/01/26 07:11:59;;;;;;;101.57;38.05;;;3.50;99.90;;;;;;5079280;28;20044;-68
2022/01/26 07:20:02;;;;;;;96.57;39.15;;;3.40;99.90;;;;;;5079341;28;20025;-67
2022/01/26 07:22:28;;;;;;;92.28;37.03;;;3.50;99.90;;;;;;5078426;28;20068;-67
2022/01/26 07:24:54;;;;;;;102.75;37.30;;;3.40;99.90;;;;;;5078394;28;20121;-68
2022/01/26 07:27:20;;;;;;;93.70;36.53;;;3.30;99.90;;;;;;5078256;28;20423;-70
2022/01/26 07:29:48;;;;;;;93.30;36.85;;;3.30;99.90;;;;;;5079282;28;20396;-67
2022/01/26 07:32:14;;;;;;;85.25;36.90;;;3.80;99.90;;;;;;5061852;28;20040;-67
2022/01/26 07:34:41;;;;;;;93.07;38.15;;;3.70;99.90;;;;;;5078608;28;20462;-67
2022/01/26 07:37:09;;;;;;;95.38;37.63;;;4.00;99.90;;;;;;5061511;28;20098;-67
2022/01/26 07:39:45;;;;;;;90.93;36.65;;;4.00;99.90;;;;;;5078933;28;20037;-68
2022/01/26 07:42:11;;;;;;;89.70;36.83;;;4.10;99.90;;;;;;5078099;28;20098;-67
2022/01/26 07:44:45;;;;;;;95.03;38.05;;;4.00;99.90;;;;;;5078220;28;20032;-67
2022/01/26 07:47:11;;;;;;;86.45;37.28;;;4.90;99.90;;;;;;5078759;28;20102;-69
2022/01/26 07:49:37;;;;;;;87.47;37.55;;;5.40;99.90;;;;;;5078763;28;20105;-71
2022/01/26 07:52:03;;;;;;;85.90;37.58;;;5.50;99.90;;;;;;5078618;28;20040;-70
2022/01/26 07:54:32;;;;;;;82.57;37.35;;;5.00;99.90;;;;;;5078544;28;20446;-63
2022/01/26 07:56:57;;;;;;;83.53;37.10;;;5.10;99.90;;;;;;5078458;28;20360;-67
2022/01/26 07:59:23;;;;;;;82.13;36.28;;;5.00;99.90;;;;;;5079063;28;20048;-67
2022/01/26 08:01:49;;;;;;;88.20;37.90;;;4.70;99.90;;;;;;5078544;28;20116;-68
2022/01/26 08:04:15;;;;;;;80.75;36.63;;;4.70;99.90;;;;;;5060794;28;20033;-67
2022/01/26 08:06:41;;;;;;;85.55;38.08;;;4.70;99.90;;;;;;5078162;28;20035;-65
2022/01/26 08:09:06;;;;;;;88.93;38.05;;;4.90;99.90;;;;;;5078057;28;20033;-66
2022/01/26 08:11:32;;;;;;;88.93;37.35;;;4.80;99.90;;;;;;5077988;28;20043;-66
2022/01/26 08:13:58;;;;;;;86.45;37.78;;;4.90;99.90;;;;;;5077916;28;20024;-67
2022/01/26 08:16:24;;;;;;;84.50;36.40;;;4.80;99.90;;;;;;5077462;28;20102;-65
2022/01/26 08:18:50;;;;;;;85.75;36.63;;;4.30;99.90;;;;;;5076492;28;20025;-66
2022/01/26 08:21:18;;;;;;;87.30;37.85;;;4.30;99.90;;;;;;5077067;28;20031;-66
2022/01/26 08:23:44;;;;;;;87.15;36.90;;;4.20;99.90;;;;;;5077631;28;20070;-66
2022/01/26 08:26:11;;;;;;;89.03;38.72;;;4.30;99.90;;;;;;5077577;28;20055;-66
2022/01/26 08:28:40;;;;;;;87.80;38.72;;;4.40;99.90;;;;;;5077715;28;20041;-67
2022/01/26 08:31:06;;;;;;;91.28;38.58;;;4.40;99.90;;;;;;5077770;28;20033;-67
2022/01/26 08:33:32;;;;;;;88.25;37.80;;;4.10;99.90;;;;;;5077579;28;20032;-67
2022/01/26 08:35:58;;;;;;;82.55;37.80;;;4.00;99.90;;;;;;5076635;28;20049;-67
2022/01/26 08:38:24;;;;;;;92.30;38.60;;;4.20;99.90;;;;;;5060332;28;20299;-66
2022/01/26 08:40:50;;;;;;;92.75;40.03;;;4.30;99.90;;;;;;5078110;28;20319;-66
2022/01/26 08:43:16;;;;;;;95.05;39.65;;;4.50;99.90;;;;;;5076959;28;20469;-66
2022/01/26 08:45:42;;;;;;;88.28;38.78;;;4.60;99.90;;;;;;5076751;28;20031;-66
2022/01/26 08:48:09;;;;;;;88.47;38.63;;;4.70;99.90;;;;;;5077356;28;20123;-67
2022/01/26 08:50:35;;;;;;;87.90;38.25;;;4.70;99.90;;;;;;5077410;28;20119;-66
2022/01/26 08:53:01;;;;;;;91.82;38.75;;;4.70;99.90;;;;;;5076546;28;20404;-65
2022/01/26 08:55:27;;;;;;;89.75;36.13;;;4.80;99.90;;;;;;5076510;28;20407;-67
2022/01/26 08:57:53;;;;;;;83.20;37.40;;;4.70;99.90;;;;;;5076467;28;20025;-67
2022/01/26 09:00:19;;;;;;;85.07;36.88;;;4.60;99.90;;;;;;5077208;28;20404;-66
2022/01/26 09:02:46;;;;;;;78.70;36.92;;;4.70;99.90;;;;;;5076318;28;20115;-66
2022/01/26 09:05:13;;;;;;;85.55;38.08;;;4.50;99.90;;;;;;5077155;28;20033;-66
2022/01/26 09:07:42;;;;;;;76.43;36.58;;;4.50;99.90;;;;;;5077037;28;20032;-65
2022/01/26 09:10:09;;;;;;;81.25;37.80;;;4.60;99.90;;;;;;5076930;28;20040;-66
2022/01/26 09:12:37;;;;;;;84.68;38.13;;;4.70;99.90;;;;;;5077010;28;20118;-67
2022/01/26 09:15:06;;;;;;;85.32;39.15;;;4.90;99.90;;;;;;5077014;28;20130;-66
2022/01/26 09:17:34;;;;;;;75.82;36.00;;;4.70;99.90;;;;;;5076958;28;20112;-67
2022/01/26 09:20:04;;;;;;;75.78;35.38;;;4.80;99.90;;;;;;5076263;28;20440;-66
2022/01/26 09:22:30;;;;;;;81.40;37.22;;;5.00;99.90;;;;;;5077337;28;20342;-66
2022/01/26 09:24:56;;;;;;;83.55;37.78;;;4.80;99.90;;;;;;5076957;28;20072;-67
2022/01/26 09:27:22;;;;;;;82.65;36.47;;;4.70;99.90;;;;;;5076138;28;20040;-68
2022/01/26 09:29:48;;;;;;;85.22;38.58;;;4.50;99.90;;;;;;5076571;28;20067;-67
2022/01/26 09:32:15;;;;;;;84.47;36.58;;;4.50;99.90;;;;;;5077548;28;20047;-65
2022/01/26 09:34:42;;;;;;;78.40;36.72;;;4.70;99.90;;;;;;5075844;28;20136;-67
2022/01/26 09:37:12;;;;;;;79.15;36.92;;;4.90;99.90;;;;;;5076062;28;20055;-66
2022/01/26 09:39:42;;;;;;;79.63;36.70;;;4.80;99.90;;;;;;5076789;28;20090;-66
2022/01/26 09:42:10;;;;;;;77.75;36.22;;;5.00;99.90;;;;;;5076690;28;20312;-66
2022/01/26 09:44:36;;;;;;;72.38;34.75;;;4.60;99.90;;;;;;5077066;28;20400;-67
2022/01/26 09:47:03;;;;;;;72.72;34.35;;;4.60;99.90;;;;;;5075830;28;20025;-67
2022/01/26 09:49:33;;;;;;;76.03;35.25;;;4.60;99.90;;;;;;5076628;28;20304;-67
2022/01/26 09:52:05;;;;;;;76.93;35.15;;;4.80;99.90;;;;;;5076652;28;20060;-66
2022/01/26 09:54:31;;;;;;;67.00;33.03;;;4.90;99.90;;;;;;5076625;28;20017;-68
2022/01/26 09:57:03;;;;;;;70.60;33.83;;;4.90;99.90;;;;;;5075908;28;20039;-67
2022/01/26 09:59:29;;;;;;;69.05;33.88;;;4.60;99.90;;;;;;5076824;28;20082;-65
2022/01/26 10:01:55;;;;;;;66.22;33.40;;;4.40;99.90;;;;;;5077044;28;20045;-68
2022/01/26 10:04:33;;;;;;;71.30;33.03;;;4.50;99.90;;;;;;5076499;28;20063;-68
2022/01/26 10:07:26;;;;;;;64.60;31.45;;;4.30;99.90;;;;;;5077022;28;20036;-68
2022/01/26 10:15:34;;;;;;;68.47;31.52;;;4.50;99.90;;;;;;5076995;28;20067;-67
2022/01/26 10:18:15;;;;;;;69.90;32.95;;;4.30;99.90;;;;;;5076724;28;20032;-68
2022/01/26 10:20:59;;;;;;;73.00;34.60;;;4.20;99.90;;;;;;5076503;28;20037;-68
2022/01/26 10:23:25;;;;;;;67.47;32.10;;;4.20;99.90;;;;;;5076574;28;20037;-67
2022/01/26 10:26:12;;;;;;;70.15;33.08;;;4.30;99.90;;;;;;5075692;28;20105;-67
2022/01/26 10:28:44;;;;;;;69.00;33.08;;;4.50;99.90;;;;;;5076285;28;20028;-67
2022/01/26 10:31:14;;;;;;;67.30;31.55;;;4.80;99.90;;;;;;5076385;28;20059;-67
2022/01/26 10:33:40;;;;;;;65.88;31.98;;;4.90;99.90;;;;;;5076406;28;20429;-67
2022/01/26 10:36:06;;;;;;;63.10;31.13;;;4.90;99.90;;;;;;5076038;28;20045;-66
2022/01/26 10:38:32;;;;;;;68.32;33.25;;;5.00;99.90;;;;;;5076226;28;20082;-68
2022/01/26 10:41:00;;;;;;;65.35;32.00;;;4.90;99.90;;;;;;5077227;28;20028;-68
2022/01/26 10:43:29;;;;;;;63.63;30.65;;;4.70;99.90;;;;;;5079744;28;20024;-67
2022/01/26 10:46:04;;;;;;;64.63;30.65;;;4.50;99.90;;;;;;5080315;28;20107;-67
2022/01/26 10:48:40;;;;;;;62.10;30.30;;;4.30;99.90;;;;;;5080011;28;20056;-67
2022/01/26 10:53:53;;;;;;;63.28;29.15;;;4.50;99.90;;;;;;5079705;28;20037;-67
2022/01/26 10:56:19;;;;;;;62.72;29.63;;;4.40;99.90;;;;;;5080002;28;20094;-67
2022/01/26 10:58:45;;;;;;;57.60;28.92;;;4.50;99.90;;;;;;5078831;28;20033;-67
2022/01/26 11:01:11;;;;;;;59.40;28.30;;;4.60;99.90;;;;;;5079667;28;20032;-69
2022/01/26 11:03:38;;;;;;;60.65;29.90;;;4.40;99.90;;;;;;5079518;28;20103;-69
2022/01/26 11:06:06;;;;;;;61.75;28.75;;;4.30;99.90;;;;;;5079420;28;20033;-67
2022/01/26 11:08:38;;;;;;;56.58;27.73;;;4.50;99.90;;;;;;5079340;28;20047;-67
2022/01/26 11:11:04;;;;;;;56.75;28.73;;;4.70;99.90;;;;;;5061885;28;20032;-66
2022/01/26 11:13:35;;;;;;;59.25;28.40;;;4.80;99.90;;;;;;5079157;28;20029;-67
2022/01/26 11:16:09;;;;;;;58.63;29.40;;;4.80;99.90;;;;;;5079006;28;20044;-66
2022/01/26 11:18:46;;;;;;;60.17;29.58;;;5.10;99.90;;;;;;5078465;28;20119;-66
2022/01/26 11:21:23;;;;;;;59.65;29.83;;;5.30;99.90;;;;;;5078493;28;20044;-66
2022/01/26 11:23:50;;;;;;;58.50;28.92;;;5.60;99.90;;;;;;5079147;28;20040;-67
2022/01/26 11:26:25;;;;;;;60.63;29.45;;;5.60;99.90;;;;;;5078929;28;20028;-67
2022/01/26 11:28:51;;;;;;;60.90;30.80;;;5.20;99.90;;;;;;5078999;28;20361;-67
2022/01/26 11:31:19;;;;;;;63.47;29.52;;;5.20;99.90;;;;;;5078959;28;20120;-67
2022/01/26 11:33:48;;;;;;;58.22;29.08;;;5.30;99.90;;;;;;5078258;28;20121;-68
2022/01/26 11:36:17;;;;;;;55.53;29.02;;;5.10;99.90;;;;;;5078874;28;20045;-70
2022/01/26 11:42:10;;;;;;;56.92;29.42;;;5.00;99.90;;;;;;5078389;28;20112;-67
2022/01/26 11:47:21;;;;;;;63.15;30.25;;;5.00;99.90;;;;;;5078669;28;20037;-68
2022/01/26 11:49:50;;;;;;;60.20;30.63;;;4.90;99.90;;;;;;5078683;28;20033;-65
2022/01/26 11:52:21;;;;;;;59.83;30.23;;;4.70;99.90;;;;;;5078222;28;20025;-67
2022/01/26 11:54:54;;;;;;;69.05;31.15;;;5.20;99.90;;;;;;5078287;28;20032;-67
2022/01/26 11:57:36;;;;;;;63.45;31.13;;;5.10;99.90;;;;;;5078289;28;20166;-67
2022/01/26 12:00:07;;;;;;;63.50;30.73;;;5.20;99.90;;;;;;5078403;28;20025;-67
2022/01/26 12:05:15;;;;;;;58.83;31.13;;;5.20;99.90;;;;;;5078842;28;20059;-67
2022/01/26 12:07:47;;;;;;;64.50;32.05;;;5.10;99.90;;;;;;5078295;28;20083;-67
2022/01/26 12:10:29;;;;;;;67.05;32.35;;;4.80;99.90;;;;;;5077521;28;20317;-67
2022/01/26 12:13:09;;;;;;;63.92;31.85;;;4.60;99.90;;;;;;5079706;28;20055;-67
2022/01/26 12:16:05;;;;;;;68.03;34.15;;;4.60;99.90;;;;;;5077476;28;20062;-69
2022/01/26 12:32:47;;;;;;;65.25;33.58;;;4.70;99.90;;;;;;5078105;28;20029;-67
2022/01/26 12:43:14;;;;;;;63.20;32.95;;;5.20;99.90;;;;;;5077586;28;20075;-67
2022/01/26 12:45:40;;;;;;;65.28;32.53;;;5.10;99.90;;;;;;5077591;28;20128;-67
2022/01/26 12:48:09;;;;;;;62.92;32.72;;;4.80;99.90;;;;;;5077712;28;20029;-66
2022/01/26 12:50:38;;;;;;;66.93;32.83;;;4.90;99.90;;;;;;5077511;28;20144;-67
2022/01/26 12:53:05;;;;;;;60.83;31.77;;;4.80;99.90;;;;;;5077362;28;20032;-67
2022/01/26 12:55:35;;;;;;;63.60;32.03;;;4.70;99.90;;;;;;5077301;28;20094;-67
2022/01/26 12:58:02;;;;;;;64.85;33.13;;;4.60;99.90;;;;;;5077546;28;20043;-68
2022/01/26 13:00:42;;;;;;;64.55;32.10;;;4.50;99.90;;;;;;5077201;28;20036;-68
2022/01/26 13:03:10;;;;;;;68.70;33.45;;;4.70;99.90;;;;;;5076563;28;20020;-68
2022/01/26 13:05:36;;;;;;;68.30;33.95;;;4.70;99.90;;;;;;5077290;28;20047;-70
2022/01/26 13:08:07;;;;;;;65.07;33.45;;;4.50;99.90;;;;;;5076208;28;20042;-67
2022/01/26 13:10:33;;;;;;;68.85;32.47;;;4.50;99.90;;;;;;5076372;28;20044;-67
2022/01/26 13:13:19;;;;;;;67.20;32.47;;;4.50;99.90;;;;;;5076969;28;20051;-68
2022/01/26 13:15:59;;;;;;;70.70;33.28;;;4.40;99.90;;;;;;5076929;28;20139;-68
2022/01/26 13:19:14;;;;;;;73.15;34.03;;;4.40;99.90;;;;;;5076332;28;20404;-69
2022/01/26 13:21:41;;;;;;;68.50;31.92;;;4.50;99.90;;;;;;5079269;28;20040;-69
2022/01/26 13:27:21;;;;;;;69.88;32.17;;;4.60;99.90;;;;;;5065878;28;20354;-68
2022/01/26 13:30:05;;;;;;;65.68;32.38;;;4.50;99.90;;;;;;5076758;28;20305;-69
2022/01/26 13:35:37;;;;;;;70.20;31.25;;;4.30;99.90;;;;;;5076537;28;20076;-68
2022/01/26 13:40:54;;;;;;;65.88;32.35;;;4.60;99.90;;;;;;5077277;28;20036;-67
2022/01/26 13:46:42;;;;;;;67.72;32.45;;;4.70;99.90;;;;;;5076858;28;20032;-67
2022/01/26 13:49:37;;;;;;;62.08;32.17;;;4.70;99.90;;;;;;5076642;28;20357;-67
2022/01/26 13:52:18;;;;;;;69.05;31.55;;;4.70;99.90;;;;;;5063218;28;20169;-67
2022/01/26 13:57:28;;;;;;;66.28;31.90;;;4.60;99.90;;;;;;5076655;28;20066;-68
2022/01/26 13:59:56;;;;;;;63.85;31.17;;;4.60;99.90;;;;;;5076778;28;20059;-68
2022/01/26 14:02:24;;;;;;;66.85;32.03;;;4.50;99.90;;;;;;5075957;28;20029;-67
2022/01/26 14:04:49;;;;;;;64.75;31.38;;;4.60;99.90;;;;;;5076576;28;20108;-64
2022/01/26 14:07:16;;;;;;;66.85;31.25;;;4.60;99.90;;;;;;5076133;28;20063;-67
2022/01/26 14:09:44;;;;;;;64.82;31.60;;;4.50;99.90;;;;;;5076531;28;20300;-67
2022/01/26 14:12:13;;;;;;;67.32;31.85;;;4.50;99.90;;;;;;5076507;28;20039;-69
2022/01/26 14:14:43;;;;;;;74.40;33.05;;;4.50;99.90;;;;;;5077414;28;20036;-69
2022/01/26 14:17:16;;;;;;;71.47;32.55;;;4.50;99.90;;;;;;5080588;28;20155;-68
2022/01/26 14:25:27;;;;;;;76.20;33.90;;;4.40;99.90;;;;;;5079450;28;20032;-68
2022/01/26 14:27:56;;;;;;;71.18;31.17;;;4.50;99.90;;;;;;5079798;28;20381;-69
2022/01/26 14:33:07;;;;;;;69.68;32.00;;;4.60;99.90;;;;;;5080067;28;20165;-67
2022/01/26 14:54:15;;;;;;;75.15;32.83;;;4.70;99.90;;;;;;5079820;28;20028;-67
2022/01/26 15:42:35;;;;;;;68.45;32.20;;;4.30;99.90;;;;;;5078603;28;20445;-68
2022/01/26 15:51:01;;;;;;;72.88;31.10;;;4.50;99.90;;;;;;5078942;28;20280;-68
2022/01/26 15:58:27;;;;;;;67.13;31.45;;;4.50;99.90;;;;;;5078518;28;20307;-67
2022/01/26 16:07:02;;;;;;;63.60;29.35;;;4.20;99.90;;;;;;5078377;28;20132;-69
2022/01/26 16:20:47;;;;;;;67.90;31.52;;;4.30;99.90;;;;;;5086556;28;20068;-70
2022/01/26 17:48:01;;;;;;;59.55;28.30;;;4.00;99.90;;;;;;5076485;28;20077;-68
2022/01/26 18:15:20;;;;;;;58.42;28.65;;;4.00;99.90;;;;;;5083165;28;20308;-68
2022/01/26 18:18:12;;;;;;;60.33;28.90;;;4.10;99.90;;;;;;5083017;28;20025;-66
2022/01/26 18:26:15;;;;;;;59.28;29.02;;;4.10;99.90;;;;;;5083078;28;20032;-70
2022/01/26 18:31:54;;;;;;;56.88;27.45;;;4.10;99.90;;;;;;5083082;28;20040;-68
2022/01/26 18:50:34;;;;;;;54.30;27.70;;;4.20;99.90;;;;;;5082851;28;20077;-71
2022/01/26 18:53:00;;;;;;;59.47;28.83;;;4.20;99.90;;;;;;5065162;28;20119;-71
2022/01/26 18:55:25;;;;;;;57.08;29.13;;;4.20;99.90;;;;;;5081722;28;20033;-71
2022/01/26 18:57:51;;;;;;;60.53;28.38;;;4.10;99.90;;;;;;5082986;28;20024;-73
2022/01/26 19:00:17;;;;;;;60.00;27.92;;;4.20;99.90;;;;;;5083052;28;20037;-68
2022/01/26 19:02:43;;;;;;;57.08;29.10;;;4.20;99.90;;;;;;5078438;28;20418;-71
2022/01/26 19:05:12;;;;;;;58.67;28.38;;;4.10;99.90;;;;;;5079515;28;20127;-70
2022/01/26 19:07:38;;;;;;;54.25;28.05;;;4.20;99.90;;;;;;5078846;28;20029;-71
2022/01/26 19:10:04;;;;;;;55.80;28.05;;;4.20;99.90;;;;;;5079445;28;20041;-70
2022/01/26 19:12:33;;;;;;;55.40;27.67;;;4.20;99.90;;;;;;5078627;28;20032;-69
2022/01/26 19:15:04;;;;;;;56.40;28.50;;;4.20;99.90;;;;;;5077899;28;20079;-70
2022/01/26 19:17:35;;;;;;;56.85;26.85;;;4.30;99.90;;;;;;5079352;28;20025;-72
2022/01/26 19:23:03;;;;;;;58.47;28.48;;;4.30;99.90;;;;;;5078438;28;20143;-70